Time;durP1;ratioP1;P1;durP2;ratioP2;P2;SDS_P1;SDS_P2;PMS_P1;PMS_P2;Temp;Humidity;BMP_temperature;BMP_pressure;BME280_temperature;BME280_humidity;BME280_pressure;Samples;Min_cycle;Max_cycle;Signal;HPM_P1;HPM_P2
2021/12/21 00:02:17;;;;;;;9.47;6.90;;;-2.50;99.90;;;;;;5033385;28;20181;-73
2021/12/21 00:04:43;;;;;;;10.53;6.37;;;-2.50;99.90;;;;;;5027189;28;20328;-74
2021/12/21 00:07:08;;;;;;;9.93;6.67;;;-2.50;99.90;;;;;;5028388;28;20204;-73
2021/12/21 00:09:34;;;;;;;9.90;6.37;;;-2.50;99.90;;;;;;5030311;28;20254;-73
2021/12/21 00:12:01;;;;;;;7.77;6.27;;;-2.50;99.90;;;;;;5044573;28;20270;-73
2021/12/21 00:20:05;;;;;;;7.70;6.60;;;-2.70;99.90;;;;;;5022094;28;20192;-74
2021/12/21 00:25:03;;;;;;;9.83;7.00;;;-2.70;99.90;;;;;;5021685;28;20181;-74
2021/12/21 00:27:28;;;;;;;11.13;7.47;;;-2.80;99.90;;;;;;5026003;28;20208;-74
2021/12/21 00:29:54;;;;;;;10.50;6.40;;;-2.80;99.90;;;;;;5027666;28;20330;-74
2021/12/21 00:32:20;;;;;;;9.00;5.63;;;-2.90;99.90;;;;;;5023118;28;20177;-74
2021/12/21 00:34:45;;;;;;;9.07;6.23;;;-2.90;99.90;;;;;;5023716;28;20793;-74
2021/12/21 00:37:11;;;;;;;7.80;6.63;;;-2.90;99.90;;;;;;5027497;28;20272;-73
2021/12/21 00:39:36;;;;;;;10.27;6.27;;;-3.00;99.90;;;;;;5021967;28;20204;-73
2021/12/21 00:42:02;;;;;;;9.00;6.10;;;-3.00;99.90;;;;;;5022231;28;20220;-74
2021/12/21 00:44:28;;;;;;;7.77;5.90;;;-3.00;99.90;;;;;;5023669;28;20176;-73
2021/12/21 00:46:54;;;;;;;8.07;6.27;;;-3.00;99.90;;;;;;5025158;28;20184;-73
2021/12/21 00:49:21;;;;;;;6.73;5.70;;;-3.10;99.90;;;;;;5022491;28;20247;-73
2021/12/21 00:51:47;;;;;;;6.70;5.53;;;-3.10;99.90;;;;;;5028300;28;20219;-74
2021/12/21 00:54:15;;;;;;;7.00;6.23;;;-3.00;99.90;;;;;;5022869;28;20181;-74
2021/12/21 00:56:40;;;;;;;8.67;6.40;;;-2.90;99.90;;;;;;5030830;28;20177;-74
2021/12/21 00:59:06;;;;;;;11.43;6.63;;;-2.80;99.90;;;;;;5021884;28;20359;-73
2021/12/21 01:01:36;;;;;;;8.20;5.77;;;-2.80;99.90;;;;;;5025969;28;20250;-73
2021/12/21 01:04:07;;;;;;;6.53;5.83;;;-2.90;99.90;;;;;;5022503;28;20195;-74
2021/12/21 01:11:33;;;;;;;10.87;6.50;;;-3.10;99.90;;;;;;5025846;28;20181;-74
2021/12/21 01:16:35;;;;;;;9.30;7.20;;;-3.10;99.90;;;;;;5031108;28;20176;-74
2021/12/21 01:21:31;;;;;;;11.27;7.37;;;-3.10;99.90;;;;;;5026756;28;20193;-73
2021/12/21 01:29:18;;;;;;;12.63;7.03;;;-3.10;99.90;;;;;;5028352;28;20212;-73
2021/12/21 01:36:55;;;;;;;11.63;6.57;;;-3.10;99.90;;;;;;5025793;28;20545;-76
2021/12/21 01:49:50;;;;;;;8.63;6.17;;;-3.20;99.90;;;;;;5025074;28;20716;-74
2021/12/21 01:52:19;;;;;;;8.50;6.40;;;-3.20;99.90;;;;;;5040840;28;20631;-74
2021/12/21 01:54:45;;;;;;;11.37;6.70;;;-3.10;99.90;;;;;;5020017;28;20217;-74
2021/12/21 01:57:11;;;;;;;8.43;6.63;;;-3.20;99.90;;;;;;5028526;28;20235;-74
2021/12/21 01:59:38;;;;;;;10.90;7.00;;;-3.30;99.90;;;;;;5025401;28;20224;-74
2021/12/21 02:02:08;;;;;;;12.67;6.93;;;-3.30;99.90;;;;;;5023559;28;20185;-74
2021/12/21 02:04:37;;;;;;;8.87;6.07;;;-3.40;99.90;;;;;;5031395;28;20655;-72
2021/12/21 02:07:04;;;;;;;9.80;6.70;;;-3.40;99.90;;;;;;5022049;28;20197;-74
2021/12/21 02:09:37;;;;;;;10.10;6.50;;;-3.40;99.90;;;;;;5026980;28;20207;-74
2021/12/21 02:12:08;;;;;;;9.03;6.50;;;-3.40;99.90;;;;;;5029255;28;20180;-74
2021/12/21 02:14:34;;;;;;;9.73;6.60;;;-3.30;99.90;;;;;;5026441;28;20205;-74
2021/12/21 02:17:25;;;;;;;13.07;7.23;;;-3.40;99.90;;;;;;5031510;28;20184;-74
2021/12/21 02:20:38;;;;;;;8.77;6.27;;;-3.40;99.90;;;;;;5025015;28;20201;-75
2021/12/21 02:30:48;;;;;;;8.77;6.03;;;-3.50;99.90;;;;;;5030151;28;20647;-74
2021/12/21 02:33:15;;;;;;;11.67;6.30;;;-3.50;99.90;;;;;;5029346;28;20169;-74
2021/12/21 02:35:42;;;;;;;8.83;6.50;;;-3.50;99.90;;;;;;5026713;28;20176;-75
2021/12/21 02:38:09;;;;;;;7.77;6.47;;;-3.40;99.90;;;;;;5032355;28;20652;-75
2021/12/21 02:40:35;;;;;;;7.13;5.80;;;-3.40;99.90;;;;;;5030045;28;20211;-73
2021/12/21 02:43:01;;;;;;;10.07;7.47;;;-3.50;99.90;;;;;;5062089;28;20203;-74
2021/12/21 02:45:27;;;;;;;7.23;6.00;;;-3.50;99.90;;;;;;5031309;28;20184;-74
2021/12/21 02:47:52;;;;;;;8.50;6.07;;;-3.50;99.90;;;;;;5025536;28;20263;-73
2021/12/21 02:50:19;;;;;;;9.03;6.97;;;-3.40;99.90;;;;;;5030312;28;20196;-75
2021/12/21 02:52:46;;;;;;;6.40;5.77;;;-3.50;99.90;;;;;;5027938;28;20208;-74
2021/12/21 02:55:13;;;;;;;6.70;6.07;;;-3.50;99.90;;;;;;5028238;28;20227;-74
2021/12/21 02:57:39;;;;;;;7.23;6.13;;;-3.50;99.90;;;;;;5029236;28;20864;-74
2021/12/21 03:00:06;;;;;;;7.63;6.47;;;-3.50;99.90;;;;;;5030470;28;20220;-74
2021/12/21 03:02:32;;;;;;;8.47;6.13;;;-3.50;99.90;;;;;;5029955;28;20260;-74
2021/12/21 03:04:58;;;;;;;6.97;5.83;;;-3.50;99.90;;;;;;5028423;28;20182;-74
2021/12/21 03:09:57;;;;;;;8.30;5.93;;;-3.50;99.90;;;;;;5035797;28;20197;-74
2021/12/21 03:14:50;;;;;;;5.93;5.43;;;-3.50;99.90;;;;;;5024396;28;20201;-74
2021/12/21 03:17:17;;;;;;;8.23;5.70;;;-3.50;99.90;;;;;;5025315;28;20262;-74
2021/12/21 03:19:42;;;;;;;7.50;6.17;;;-3.60;99.90;;;;;;5028560;28;20204;-74
2021/12/21 03:22:09;;;;;;;6.10;5.17;;;-3.60;99.90;;;;;;5027206;28;20570;-74
2021/12/21 03:24:36;;;;;;;9.00;5.23;;;-3.60;99.90;;;;;;5031844;28;20172;-75
2021/12/21 03:27:03;;;;;;;6.47;5.50;;;-3.60;99.90;;;;;;5025778;28;20188;-71
2021/12/21 03:29:29;;;;;;;6.93;5.60;;;-3.60;99.90;;;;;;5021564;28;20595;-74
2021/12/21 03:31:55;;;;;;;8.73;6.00;;;-3.60;99.90;;;;;;5024193;28;20192;-75
2021/12/21 03:34:21;;;;;;;9.50;6.30;;;-3.60;99.90;;;;;;5027114;28;20172;-73
2021/12/21 03:36:47;;;;;;;7.00;5.50;;;-3.70;99.90;;;;;;5026582;28;20232;-74
2021/12/21 03:39:20;;;;;;;7.17;5.83;;;-3.70;99.90;;;;;;5022599;28;20207;-74
2021/12/21 03:41:57;;;;;;;7.57;6.60;;;-3.70;99.90;;;;;;5026724;28;20271;-74
2021/12/21 03:44:24;;;;;;;7.07;6.20;;;-3.70;99.90;;;;;;5034653;28;20208;-74
2021/12/21 03:46:53;;;;;;;7.90;6.53;;;-3.70;99.90;;;;;;5029373;28;20268;-74
2021/12/21 03:52:06;;;;;;;12.97;6.57;;;-3.70;99.90;;;;;;5027873;28;20189;-72
2021/12/21 03:54:32;;;;;;;9.70;6.43;;;-3.80;99.90;;;;;;5029584;28;20230;-74
2021/12/21 03:57:00;;;;;;;11.17;5.63;;;-3.70;99.90;;;;;;5026827;28;21194;-73
2021/12/21 03:59:26;;;;;;;9.37;6.00;;;-3.70;99.90;;;;;;5021510;28;20634;-74
2021/12/21 04:01:52;;;;;;;8.47;7.03;;;-3.70;99.90;;;;;;5024824;28;20183;-71
2021/12/21 04:04:18;;;;;;;10.97;6.30;;;-3.70;99.90;;;;;;5033936;28;20180;-74
2021/12/21 04:06:45;;;;;;;7.87;5.67;;;-3.80;99.90;;;;;;5023855;28;20528;-74
2021/12/21 04:09:11;;;;;;;8.70;6.80;;;-3.80;99.90;;;;;;5022597;28;20224;-73
2021/12/21 04:11:37;;;;;;;6.80;5.80;;;-3.80;99.90;;;;;;5024819;28;20185;-73
2021/12/21 04:14:02;;;;;;;7.37;6.00;;;-3.90;99.90;;;;;;5034493;28;20188;-74
2021/12/21 04:16:29;;;;;;;11.30;5.90;;;-3.90;99.90;;;;;;5025777;28;20181;-74
2021/12/21 04:18:55;;;;;;;5.93;5.40;;;-3.90;99.90;;;;;;5021872;28;20275;-74
2021/12/21 04:21:21;;;;;;;6.60;5.90;;;-3.90;99.90;;;;;;5027439;28;20259;-74
2021/12/21 04:23:46;;;;;;;5.77;5.27;;;-3.90;99.90;;;;;;5032197;28;20265;-74
2021/12/21 04:26:14;;;;;;;6.57;5.70;;;-3.90;99.90;;;;;;5026380;28;20184;-74
2021/12/21 04:28:40;;;;;;;9.33;6.10;;;-3.90;99.90;;;;;;5028185;28;20196;-74
2021/12/21 04:31:09;;;;;;;7.63;5.13;;;-3.90;99.90;;;;;;5023688;28;20275;-74
2021/12/21 04:33:34;;;;;;;6.33;5.57;;;-3.90;99.90;;;;;;5021134;28;20168;-74
2021/12/21 04:36:00;;;;;;;7.13;5.27;;;-3.90;99.90;;;;;;5027756;28;20192;-74
2021/12/21 04:38:31;;;;;;;5.47;4.97;;;-4.00;99.90;;;;;;5032425;28;20730;-74
2021/12/21 04:41:05;;;;;;;5.57;5.03;;;-4.00;99.90;;;;;;5041844;28;20184;-74
2021/12/21 04:43:31;;;;;;;7.23;5.53;;;-4.00;99.90;;;;;;5028194;28;20178;-74
2021/12/21 04:45:57;;;;;;;5.60;4.93;;;-4.00;99.90;;;;;;5028920;28;20181;-74
2021/12/21 04:48:23;;;;;;;7.57;5.40;;;-4.00;99.90;;;;;;5017914;28;20223;-73
2021/12/21 04:50:49;;;;;;;7.27;5.90;;;-4.10;99.90;;;;;;5027349;28;20181;-74
2021/12/21 04:53:14;;;;;;;6.97;6.17;;;-4.10;99.90;;;;;;5026953;28;20176;-74
2021/12/21 04:55:40;;;;;;;8.57;5.80;;;-4.10;99.90;;;;;;5019119;28;20181;-73
2021/12/21 04:58:06;;;;;;;8.03;6.47;;;-4.10;99.90;;;;;;5016243;28;20238;-74
2021/12/21 05:00:33;;;;;;;6.70;5.37;;;-4.10;99.90;;;;;;5026347;28;20220;-74
2021/12/21 05:02:59;;;;;;;7.77;6.20;;;-4.10;99.90;;;;;;5021366;28;20717;-74
2021/12/21 05:05:25;;;;;;;8.37;5.40;;;-4.10;99.90;;;;;;5028803;28;20270;-73
2021/12/21 05:08:18;;;;;;;7.30;5.80;;;-4.10;99.90;;;;;;5037301;28;20227;-73
2021/12/21 05:10:47;;;;;;;11.20;6.67;;;-4.10;99.90;;;;;;5028050;28;20205;-72
2021/12/21 05:13:14;;;;;;;8.43;6.33;;;-4.10;99.90;;;;;;5023279;28;20180;-73
2021/12/21 05:15:40;;;;;;;6.47;5.33;;;-4.10;99.90;;;;;;5021667;28;20647;-73
2021/12/21 05:18:06;;;;;;;10.23;5.90;;;-4.20;99.90;;;;;;5029367;28;20193;-73
2021/12/21 05:20:31;;;;;;;6.27;5.20;;;-4.20;99.90;;;;;;5030780;28;20206;-74
2021/12/21 05:22:57;;;;;;;7.67;5.70;;;-4.20;99.90;;;;;;5025339;28;20176;-74
2021/12/21 05:25:23;;;;;;;8.07;5.73;;;-4.20;99.90;;;;;;5026210;28;20263;-74
2021/12/21 05:27:48;;;;;;;7.63;5.93;;;-4.20;99.90;;;;;;5025119;28;20219;-74
2021/12/21 05:30:14;;;;;;;6.03;5.50;;;-4.20;99.90;;;;;;5035982;28;20682;-74
2021/12/21 05:32:40;;;;;;;7.80;5.63;;;-4.20;99.90;;;;;;5028267;28;20179;-74
2021/12/21 05:35:07;;;;;;;10.10;5.83;;;-4.20;99.90;;;;;;5030908;28;20209;-74
2021/12/21 05:37:33;;;;;;;6.17;5.57;;;-4.20;99.90;;;;;;5025396;28;20591;-75
2021/12/21 05:40:10;;;;;;;8.80;5.90;;;-4.20;99.90;;;;;;5031252;28;20219;-74
2021/12/21 05:42:36;;;;;;;7.73;5.70;;;-4.30;99.90;;;;;;5028109;28;20176;-75
2021/12/21 05:45:03;;;;;;;6.57;5.90;;;-4.30;99.90;;;;;;5021892;28;20189;-74
2021/12/21 05:47:29;;;;;;;8.80;6.07;;;-4.30;99.90;;;;;;5019426;28;20316;-74
2021/12/21 05:49:55;;;;;;;6.47;5.03;;;-4.30;99.90;;;;;;5029264;28;20763;-75
2021/12/21 05:52:20;;;;;;;5.60;4.93;;;-4.30;99.90;;;;;;5024211;28;20173;-74
2021/12/21 05:54:46;;;;;;;12.93;5.90;;;-4.30;99.90;;;;;;5019152;28;20181;-74
2021/12/21 05:57:12;;;;;;;5.37;4.97;;;-4.20;99.90;;;;;;5024323;28;20271;-74
2021/12/21 05:59:37;;;;;;;10.10;5.93;;;-4.20;99.90;;;;;;5020973;28;20209;-74
2021/12/21 06:02:04;;;;;;;8.70;6.13;;;-4.30;99.90;;;;;;5018385;28;20235;-75
2021/12/21 06:04:30;;;;;;;7.33;5.57;;;-4.30;99.90;;;;;;5023835;28;20184;-74
2021/12/21 06:06:55;;;;;;;8.23;5.70;;;-4.30;99.90;;;;;;5027681;28;20530;-75
2021/12/21 06:09:21;;;;;;;9.80;5.73;;;-4.40;99.90;;;;;;5027323;28;20220;-74
2021/12/21 06:27:41;;;;;;;8.17;5.90;;;-4.30;99.90;;;;;;5020367;28;20300;-75
2021/12/21 06:30:08;;;;;;;6.07;5.40;;;-4.30;99.90;;;;;;5028239;28;20314;-75
2021/12/21 06:32:34;;;;;;;9.27;6.20;;;-4.30;99.90;;;;;;5032735;28;20259;-75
2021/12/21 06:35:00;;;;;;;8.67;6.03;;;-4.30;99.90;;;;;;5024623;28;20627;-75
2021/12/21 06:37:25;;;;;;;6.97;6.20;;;-4.30;99.90;;;;;;5031617;28;20196;-74
2021/12/21 06:39:51;;;;;;;8.40;6.53;;;-4.20;99.90;;;;;;5028265;28;20204;-75
2021/12/21 06:42:18;;;;;;;7.93;6.40;;;-4.20;99.90;;;;;;5032402;28;20181;-76
2021/12/21 06:44:47;;;;;;;7.20;5.87;;;-4.00;99.90;;;;;;5037809;28;20179;-76
2021/12/21 06:52:41;;;;;;;7.37;6.03;;;-3.70;99.90;;;;;;5029019;28;20238;-74
2021/12/21 06:55:08;;;;;;;8.27;6.90;;;-3.70;99.90;;;;;;5030415;28;20544;-75
2021/12/21 06:57:34;;;;;;;9.47;6.27;;;-3.80;99.90;;;;;;5025127;28;20592;-75
2021/12/21 07:00:00;;;;;;;11.57;6.63;;;-3.90;99.90;;;;;;5033480;28;20255;-75
2021/12/21 07:02:26;;;;;;;9.57;6.50;;;-3.90;99.90;;;;;;5033432;28;20217;-75
2021/12/21 07:04:52;;;;;;;7.93;6.00;;;-4.00;99.90;;;;;;5025355;28;20188;-75
2021/12/21 07:07:18;;;;;;;6.67;5.70;;;-4.00;99.90;;;;;;5021979;28;20739;-75
2021/12/21 07:09:48;;;;;;;7.30;6.10;;;-4.00;99.90;;;;;;5029252;28;20636;-75
2021/12/21 07:18:29;;;;;;;8.83;5.67;;;-4.00;99.90;;;;;;5028135;28;20240;-75
2021/12/21 07:20:19;;;;;;;9.20;6.27;;;-4.00;99.90;;;;;;5028262;28;20243;-74
2021/12/21 07:22:44;;;;;;;7.10;6.00;;;-4.00;99.90;;;;;;5024288;28;20189;-74
2021/12/21 07:25:10;;;;;;;6.20;5.60;;;-4.10;99.90;;;;;;5027032;28;20188;-75
2021/12/21 07:27:36;;;;;;;6.93;5.63;;;-4.10;99.90;;;;;;5027320;28;20240;-74
2021/12/21 07:30:04;;;;;;;12.27;7.43;;;-4.10;99.90;;;;;;5027353;28;20204;-75
2021/12/21 07:32:29;;;;;;;9.10;6.30;;;-4.00;99.90;;;;;;5027866;28;20183;-76
2021/12/21 07:34:55;;;;;;;8.43;6.13;;;-4.00;99.90;;;;;;5025674;28;20493;-75
2021/12/21 07:37:20;;;;;;;10.20;6.23;;;-3.90;99.90;;;;;;5029717;28;20194;-74
2021/12/21 07:39:46;;;;;;;6.70;5.87;;;-3.90;99.90;;;;;;5029884;28;20239;-74
2021/12/21 07:42:12;;;;;;;8.53;5.97;;;-3.90;99.90;;;;;;5030649;28;20184;-75
2021/12/21 07:44:37;;;;;;;7.10;6.00;;;-3.90;99.90;;;;;;5031307;28;20682;-77
2021/12/21 07:47:03;;;;;;;6.80;5.83;;;-3.90;99.90;;;;;;5024542;28;20195;-75
2021/12/21 07:49:29;;;;;;;11.80;6.27;;;-3.90;99.90;;;;;;5028037;28;20271;-75
2021/12/21 07:51:55;;;;;;;13.57;6.33;;;-3.80;99.90;;;;;;5027457;28;20281;-76
2021/12/21 07:54:21;;;;;;;8.13;6.60;;;-3.80;99.90;;;;;;5023466;28;20714;-74
2021/12/21 07:56:47;;;;;;;8.60;6.17;;;-3.80;99.90;;;;;;5025900;28;20310;-77
2021/12/21 07:59:13;;;;;;;7.53;5.67;;;-3.70;99.90;;;;;;5026574;28;20574;-74
2021/12/21 08:01:39;;;;;;;6.73;5.93;;;-3.70;99.90;;;;;;5030445;28;20189;-72
2021/12/21 08:04:07;;;;;;;6.80;6.20;;;-3.60;99.90;;;;;;5028994;28;20181;-74
2021/12/21 08:06:34;;;;;;;6.30;5.70;;;-3.50;99.90;;;;;;5022572;28;20303;-73
2021/12/21 08:09:01;;;;;;;8.63;6.87;;;-3.50;99.90;;;;;;5025885;28;20754;-74
2021/12/21 08:13:53;;;;;;;7.87;5.90;;;-3.30;99.90;;;;;;5028047;28;20185;-74
2021/12/21 08:16:18;;;;;;;8.60;6.47;;;-3.20;99.90;;;;;;5030179;28;20180;-74
2021/12/21 08:18:44;;;;;;;8.20;5.90;;;-3.20;99.90;;;;;;5028338;28;20729;-74
2021/12/21 08:21:12;;;;;;;6.90;6.17;;;-3.20;99.90;;;;;;5027418;28;20181;-74
2021/12/21 08:23:37;;;;;;;7.47;6.77;;;-3.20;99.90;;;;;;5053245;28;20596;-74
2021/12/21 08:26:04;;;;;;;6.40;5.80;;;-3.10;99.90;;;;;;5026291;28;20189;-73
2021/12/21 08:28:30;;;;;;;6.27;5.60;;;-3.10;99.90;;;;;;5025970;28;20217;-74
2021/12/21 08:30:55;;;;;;;6.33;5.30;;;-3.10;99.90;;;;;;5023068;28;20235;-73
2021/12/21 08:33:21;;;;;;;10.63;5.30;;;-3.00;99.90;;;;;;5030924;28;20199;-74
2021/12/21 08:35:46;;;;;;;8.00;6.67;;;-3.00;99.90;;;;;;5027000;28;20644;-75
2021/12/21 08:38:15;;;;;;;7.80;5.73;;;-2.90;99.90;;;;;;5026830;28;20192;-74
2021/12/21 08:40:43;;;;;;;6.90;5.27;;;-2.80;99.90;;;;;;5032093;28;20193;-75
2021/12/21 08:43:14;;;;;;;8.23;5.57;;;-2.80;99.90;;;;;;5027083;28;20188;-74
2021/12/21 08:45:44;;;;;;;9.93;5.63;;;-2.70;99.90;;;;;;5024909;28;20182;-75
2021/12/21 08:48:11;;;;;;;6.70;5.97;;;-2.70;99.90;;;;;;5028705;28;20607;-75
2021/12/21 08:50:37;;;;;;;7.17;6.37;;;-2.60;99.90;;;;;;5026211;28;20262;-74
2021/12/21 08:53:03;;;;;;;6.20;5.60;;;-2.50;99.90;;;;;;5031846;28;20196;-75
2021/12/21 08:55:29;;;;;;;7.83;5.67;;;-2.40;99.90;;;;;;5026910;28;20176;-75
2021/12/21 08:57:55;;;;;;;7.70;5.83;;;-2.30;99.90;;;;;;5028782;28;20181;-73
2021/12/21 09:00:21;;;;;;;9.27;5.67;;;-1.90;99.90;;;;;;5024119;28;20589;-75
2021/12/21 09:02:47;;;;;;;5.90;5.40;;;-1.10;99.90;;;;;;5025280;28;20647;-77
2021/12/21 09:05:19;;;;;;;5.33;4.93;;;0.10;99.90;;;;;;5029066;28;20254;-77
2021/12/21 09:07:46;;;;;;;7.83;5.50;;;0.80;99.90;;;;;;5028737;28;20226;-76
2021/12/21 09:10:14;;;;;;;5.70;5.20;;;1.30;99.90;;;;;;5028795;28;20214;-75
2021/12/21 09:12:41;;;;;;;6.03;5.23;;;1.40;99.90;;;;;;5017466;28;20181;-76
2021/12/21 09:15:08;;;;;;;6.40;5.00;;;1.60;99.90;;;;;;5031928;28;20693;-75
2021/12/21 09:17:33;;;;;;;5.70;5.10;;;1.90;99.90;;;;;;5028497;28;20196;-77
2021/12/21 09:19:59;;;;;;;6.23;4.90;;;1.80;99.90;;;;;;5027818;28;20224;-75
2021/12/21 09:22:25;;;;;;;6.93;5.43;;;1.40;99.90;;;;;;5024514;28;20187;-74
2021/12/21 09:24:51;;;;;;;5.77;5.00;;;1.40;99.90;;;;;;5022410;28;20717;-72
2021/12/21 09:27:17;;;;;;;6.57;5.10;;;1.30;99.90;;;;;;5024933;28;20331;-70
2021/12/21 09:29:44;;;;;;;5.40;4.90;;;1.90;99.90;;;;;;5024341;28;20599;-72
2021/12/21 09:32:13;;;;;;;4.87;4.47;;;3.60;99.90;;;;;;5026049;28;20187;-73
2021/12/21 09:34:40;;;;;;;5.13;4.73;;;5.90;99.90;;;;;;5027150;28;20252;-73
2021/12/21 09:37:06;;;;;;;4.47;4.17;;;8.20;99.90;;;;;;5026039;28;20185;-72
2021/12/21 09:39:32;;;;;;;4.90;4.20;;;9.70;99.90;;;;;;5025579;28;20694;-74
2021/12/21 09:41:58;;;;;;;4.70;4.30;;;10.70;95.50;;;;;;5025797;28;20189;-75
2021/12/21 09:44:24;;;;;;;5.15;4.65;;;11.80;90.70;;;;;;5024422;28;20267;-73
2021/12/21 09:46:50;;;;;;;4.97;4.35;;;11.70;80.40;;;;;;5033156;28;20173;-73
2021/12/21 09:49:16;;;;;;;4.53;3.80;;;12.40;77.60;;;;;;5028643;28;20204;-75
2021/12/21 09:51:42;;;;;;;5.68;4.50;;;12.70;72.80;;;;;;5023042;28;20670;-73
2021/12/21 09:54:08;;;;;;;4.88;4.47;;;13.00;71.90;;;;;;5028552;28;20172;-73
2021/12/21 09:56:34;;;;;;;5.40;4.40;;;13.50;67.60;;;;;;5032640;28;20176;-73
2021/12/21 09:59:02;;;;;;;5.82;4.28;;;13.50;65.90;;;;;;5019534;28;20220;-76
2021/12/21 10:01:28;;;;;;;6.00;4.57;;;14.00;63.90;;;;;;5037285;28;20196;-75
2021/12/21 10:03:53;;;;;;;6.22;4.50;;;14.70;63.60;;;;;;5030518;28;20188;-77
2021/12/21 10:06:19;;;;;;;5.60;5.00;;;14.70;61.50;;;;;;5028169;28;20656;-79
2021/12/21 10:08:45;;;;;;;4.78;4.38;;;14.80;60.00;;;;;;5021858;28;20204;-78
2021/12/21 10:11:22;;;;;;;5.70;4.78;;;14.20;61.10;;;;;;5027380;28;20184;-77
2021/12/21 10:13:49;;;;;;;7.70;4.53;;;13.80;61.70;;;;;;5017079;28;20552;-77
2021/12/21 10:16:19;;;;;;;5.68;4.57;;;13.60;61.00;;;;;;5017086;28;20185;-77
2021/12/21 10:18:45;;;;;;;4.90;4.40;;;13.50;60.90;;;;;;5022656;28;20197;-78
2021/12/21 10:21:14;;;;;;;5.30;4.63;;;13.50;61.10;;;;;;5024273;28;20234;-79
2021/12/21 10:23:46;;;;;;;5.47;4.60;;;13.60;60.30;;;;;;5029999;28;20177;-79
2021/12/21 10:26:19;;;;;;;5.13;4.60;;;13.20;61.50;;;;;;5033001;28;20583;-77
2021/12/21 10:28:47;;;;;;;4.93;4.22;;;13.60;60.70;;;;;;5019726;28;20209;-78
2021/12/21 10:31:25;;;;;;;4.30;3.97;;;13.90;60.40;;;;;;5025860;28;20180;-78
2021/12/21 10:33:51;;;;;;;6.03;4.20;;;14.80;58.70;;;;;;5028732;28;20181;-76
2021/12/21 10:36:17;;;;;;;4.22;3.83;;;15.30;58.70;;;;;;5024795;28;20644;-76
2021/12/21 10:38:51;;;;;;;8.10;4.25;;;16.60;57.60;;;;;;5025700;28;20334;-76
2021/12/21 10:41:19;;;;;;;4.93;4.47;;;16.60;54.70;;;;;;5033830;28;20199;-76
2021/12/21 10:44:07;;;;;;;5.35;3.97;;;17.60;52.70;;;;;;5031435;28;20185;-77
2021/12/21 10:46:36;;;;;;;7.70;4.88;;;19.00;51.20;;;;;;5032228;28;20242;-76
2021/12/21 10:49:21;;;;;;;4.53;4.13;;;17.60;50.30;;;;;;5032231;28;20683;-76
2021/12/21 10:51:55;;;;;;;5.40;3.90;;;16.30;53.00;;;;;;5029474;28;20177;-75
2021/12/21 10:54:54;;;;;;;5.38;4.07;;;17.00;52.30;;;;;;5027309;28;20619;-75
2021/12/21 10:57:31;;;;;;;4.53;4.13;;;17.50;50.90;;;;;;5028045;28;20238;-76
2021/12/21 11:00:00;;;;;;;4.90;4.15;;;18.30;51.30;;;;;;5031589;28;20217;-76
2021/12/21 11:02:33;;;;;;;5.43;4.10;;;17.70;49.00;;;;;;5027497;28;20168;-77
2021/12/21 11:05:02;;;;;;;4.50;4.07;;;16.40;51.10;;;;;;5044669;28;20235;-76
2021/12/21 11:07:42;;;;;;;5.35;4.55;;;16.00;52.20;;;;;;5029382;28;20201;-77
2021/12/21 11:10:25;;;;;;;4.40;3.95;;;16.00;52.40;;;;;;5028293;28;20686;-77
2021/12/21 11:12:53;;;;;;;4.63;4.13;;;15.90;52.70;;;;;;5032397;28;20173;-78
2021/12/21 11:15:21;;;;;;;5.05;4.55;;;16.20;54.20;;;;;;5039696;28;20670;-77
2021/12/21 11:17:47;;;;;;;6.32;4.03;;;17.30;52.00;;;;;;5038135;28;20195;-78
2021/12/21 11:20:15;;;;;;;7.57;4.22;;;17.20;51.90;;;;;;5037876;28;20212;-75
2021/12/21 11:22:44;;;;;;;4.82;4.30;;;17.80;50.40;;;;;;5029484;28;20243;-77
2021/12/21 11:25:20;;;;;;;4.45;3.95;;;18.00;51.50;;;;;;5029665;28;20174;-76
2021/12/21 11:27:46;;;;;;;5.43;3.70;;;17.80;49.80;;;;;;5027592;28;20522;-76
2021/12/21 11:30:17;;;;;;;5.03;4.53;;;18.60;50.00;;;;;;5031653;28;20204;-78
2021/12/21 11:32:49;;;;;;;5.43;4.20;;;19.40;48.40;;;;;;5037596;28;20188;-77
2021/12/21 11:37:48;;;;;;;4.57;4.18;;;17.40;49.60;;;;;;5032597;28;20188;-77
2021/12/21 11:40:17;;;;;;;5.00;3.75;;;18.60;50.20;;;;;;5048288;28;20197;-78
2021/12/21 11:42:52;;;;;;;6.45;4.75;;;19.30;47.80;;;;;;5039707;28;20276;-78
2021/12/21 11:45:34;;;;;;;6.38;4.20;;;18.00;48.70;;;;;;5040894;28;20188;-77
2021/12/21 11:48:06;;;;;;;4.90;3.95;;;17.20;49.80;;;;;;5049283;28;20209;-80
2021/12/21 11:50:32;;;;;;;5.25;4.07;;;17.20;51.00;;;;;;5035705;28;20193;-75
2021/12/21 11:53:18;;;;;;;4.57;3.50;;;18.60;49.50;;;;;;5032398;28;20186;-76
2021/12/21 11:55:47;;;;;;;4.70;3.50;;;19.30;47.70;;;;;;5027938;28;20181;-76
2021/12/21 11:58:26;;;;;;;4.80;3.53;;;20.30;46.20;;;;;;5027536;28;20185;-76
2021/12/21 12:00:56;;;;;;;5.00;3.58;;;19.90;46.20;;;;;;5027007;28;20207;-75
2021/12/21 12:03:26;;;;;;;4.30;3.60;;;21.30;45.30;;;;;;5035421;28;20648;-76
2021/12/21 12:05:58;;;;;;;3.35;3.05;;;21.10;43.20;;;;;;5022654;28;20193;-73
2021/12/21 12:08:27;;;;;;;4.35;2.95;;;20.40;44.70;;;;;;5033864;28;20200;-78
2021/12/21 12:11:00;;;;;;;3.20;3.00;;;20.90;43.60;;;;;;5043896;28;20200;-75
2021/12/21 12:13:34;;;;;;;3.38;2.92;;;19.80;43.70;;;;;;5046135;28;20210;-78
2021/12/21 12:16:05;;;;;;;5.38;3.70;;;20.00;44.70;;;;;;5037977;28;20549;-78
2021/12/21 12:18:47;;;;;;;3.80;3.33;;;20.60;42.80;;;;;;5044254;28;20175;-75
2021/12/21 12:22:13;;;;;;;3.60;3.30;;;20.60;42.50;;;;;;5047560;28;20244;-79
2021/12/21 12:25:00;;;;;;;4.85;2.72;;;21.30;42.60;;;;;;5034099;28;20215;-78
2021/12/21 12:27:29;;;;;;;3.38;2.92;;;22.70;41.20;;;;;;5047592;28;20188;-78
2021/12/21 12:30:22;;;;;;;3.22;3.03;;;22.70;40.30;;;;;;5041272;28;20201;-78
2021/12/21 12:33:32;;;;;;;3.13;2.85;;;20.60;40.80;;;;;;5039050;28;20220;-75
2021/12/21 12:36:07;;;;;;;3.17;2.97;;;19.00;42.90;;;;;;5072202;28;20272;-77
2021/12/21 12:38:43;;;;;;;3.10;2.65;;;19.80;43.10;;;;;;5048305;28;20199;-78
2021/12/21 12:41:13;;;;;;;3.92;3.05;;;20.10;42.30;;;;;;5041319;28;20192;-78
2021/12/21 12:43:44;;;;;;;3.78;3.45;;;19.80;43.00;;;;;;5039809;28;20269;-79
2021/12/21 12:46:21;;;;;;;4.97;3.30;;;19.80;42.30;;;;;;5041841;28;20177;-77
2021/12/21 12:48:48;;;;;;;4.25;3.72;;;17.80;43.90;;;;;;5044958;28;20262;-78
2021/12/21 12:51:28;;;;;;;3.47;3.17;;;16.70;46.60;;;;;;5044117;28;20243;-78
2021/12/21 12:53:56;;;;;;;4.40;3.10;;;16.80;46.00;;;;;;5033448;28;20248;-78
2021/12/21 12:56:22;;;;;;;4.55;3.33;;;15.70;46.60;;;;;;5031840;28;20177;-78
2021/12/21 12:59:04;;;;;;;3.58;3.20;;;14.30;48.70;;;;;;5033023;28;20258;-79
2021/12/21 13:01:37;;;;;;;3.33;3.00;;;13.10;50.90;;;;;;5035963;28;20196;-77
2021/12/21 13:04:11;;;;;;;5.63;3.10;;;12.40;53.50;;;;;;5034117;28;20189;-78
2021/12/21 13:06:38;;;;;;;3.53;3.22;;;12.40;53.30;;;;;;5031818;28;20181;-75
2021/12/21 13:09:06;;;;;;;4.30;3.13;;;12.70;53.70;;;;;;5026414;28;20247;-75
2021/12/21 13:11:35;;;;;;;4.10;3.40;;;12.90;53.40;;;;;;5027143;28;20635;-77
2021/12/21 13:14:01;;;;;;;4.43;2.90;;;13.50;52.40;;;;;;5034641;28;20181;-76
2021/12/21 13:16:29;;;;;;;5.10;3.58;;;13.30;52.10;;;;;;5029059;28;20191;-76
2021/12/21 13:18:58;;;;;;;4.03;3.50;;;13.30;52.20;;;;;;5027071;28;20207;-75
2021/12/21 13:21:26;;;;;;;5.00;3.08;;;13.10;52.30;;;;;;5029840;28;20192;-76
2021/12/21 13:24:01;;;;;;;3.63;3.28;;;12.30;53.30;;;;;;5034589;28;20183;-75
2021/12/21 13:26:51;;;;;;;3.72;3.30;;;11.80;53.80;;;;;;5024932;28;20193;-76
2021/12/21 13:29:31;;;;;;;3.45;3.15;;;10.50;56.10;;;;;;5032830;28;20624;-76
2021/12/21 13:32:01;;;;;;;6.97;3.45;;;9.90;59.20;;;;;;5030971;28;20181;-76
2021/12/21 13:34:28;;;;;;;3.63;3.33;;;9.40;60.50;;;;;;5024511;28;20176;-76
2021/12/21 13:36:58;;;;;;;5.72;3.20;;;8.80;61.30;;;;;;5026198;28;20655;-76
2021/12/21 13:39:37;;;;;;;5.28;3.55;;;8.60;62.60;;;;;;5027937;28;20221;-76
2021/12/21 13:42:05;;;;;;;3.80;3.50;;;7.80;64.50;;;;;;5026838;28;20242;-75
2021/12/21 13:44:34;;;;;;;3.97;3.67;;;7.40;64.60;;;;;;5025196;28;20175;-75
2021/12/21 13:47:03;;;;;;;4.22;3.90;;;6.70;67.60;;;;;;5022989;28;20180;-76
2021/12/21 13:49:29;;;;;;;3.50;3.17;;;6.20;70.10;;;;;;5028121;28;20216;-76
2021/12/21 13:51:58;;;;;;;3.95;3.55;;;6.00;70.80;;;;;;5025550;28;20181;-76
2021/12/21 13:54:26;;;;;;;4.43;3.90;;;5.80;72.00;;;;;;5022829;28;20215;-75
2021/12/21 13:56:53;;;;;;;4.75;3.92;;;5.20;74.10;;;;;;5025486;28;20172;-73
2021/12/21 13:59:20;;;;;;;3.85;3.55;;;5.00;76.10;;;;;;5028079;28;20603;-75
2021/12/21 14:01:52;;;;;;;4.13;3.83;;;4.90;76.80;;;;;;5025694;28;20185;-75
2021/12/21 14:04:25;;;;;;;4.22;3.85;;;4.40;77.50;;;;;;5021938;28;20208;-75
2021/12/21 14:06:51;;;;;;;7.10;4.03;;;4.20;78.70;;;;;;5026672;28;20276;-76
2021/12/21 14:09:20;;;;;;;4.28;3.88;;;4.20;79.60;;;;;;5020604;28;20639;-73
2021/12/21 14:11:51;;;;;;;7.07;4.00;;;3.90;82.00;;;;;;5024093;28;20215;-74
2021/12/21 14:14:19;;;;;;;4.82;3.80;;;3.50;84.80;;;;;;5025543;28;20181;-74
2021/12/21 14:16:46;;;;;;;6.88;4.07;;;3.30;87.60;;;;;;5027941;28;20658;-73
2021/12/21 14:19:19;;;;;;;6.18;4.20;;;3.00;89.50;;;;;;5022120;28;20258;-71
2021/12/21 14:21:47;;;;;;;4.47;4.07;;;2.80;90.70;;;;;;5027517;28;20231;-73
2021/12/21 14:24:16;;;;;;;6.13;4.23;;;2.70;91.50;;;;;;5032968;28;20187;-74